Impacts TAF Board INFO
FOR SITUATIONAL AWARENESS. NOT TO BE USED FOR FLIGHT PLANNING PURPOSES.
IDs:

KDEN - Denver Intl, CO, US

Issued at 2336 UTC 23 Feb 2018
Updated at 0011 UTC 24 Feb 2018
Potential Impact None Slight Moderate High
Time2356Z 24/01Z 24/02Z 24/03Z 24/04Z 24/05Z 24/06Z 24/07Z 24/08Z 24/09Z 24/10Z 24/11Z 24/12Z 24/13Z>>
Type OBS PRVL
  [TEMP]  
PRVL
  [TEMP]  
PRVL
  [TEMP]  
PRVL
  [TEMP]  
PRVL PRVL PRVL PRVL PRVL PRVL PRVL PRVL PRVL
VIS 2.5 3
  [2]  
3
  [1]  
3
  [1]  
3
  [1]  
3 3 3 3 5 5 5 >6 >6
CIG 9 10
  [10]  
10
  [5]  
10
  [5]  
10
  [5]  
10 10 10 10 15 15 15 100 100
Cover OVC OVC
  [OVC]  
OVC
  [BKN]  
OVC
  [BKN]  
OVC
  [BKN]  
OVC OVC OVC OVC BKN BKN BKN BKN BKN
FltCat IFR MVFR
  [IFR]  
MVFR
  [IFR]  
MVFR
  [IFR]  
MVFR
  [IFR]  
MVFR MVFR MVFR MVFR MVFR MVFR MVFR VFR VFR
WX HZ -SHSN BR
  [-SHSN BR]  
-SHSN BR
  [-SN BR]  
-SHSN BR
  [-SN BR]  
-SHSN BR
  [-SN BR]  
-SHSN BR -SHSN BR -SHSN BR -SHSN BR BR VCFG BR VCFG BR VCFG -- --
WDir 320 320
[320]
300
[300]
300
[300]
300
[300]
300 300 300 300 280 280 280 230 230
WSpd 13 15
  [15]  
12
  [12]  
12
  [12]  
12
  [12]  
12 12 12 12 6 6 6 6 6
WGst 20 --
  [--]  
--
  [--]  
--
  [--]  
--
  [--]  
-- -- -- -- -- -- -- -- --

Raw TAF
KDEN 232336Z 2400/2506 32015KT 3SM -SHSN BR BKN010 OVC040
  TEMPO 2400/2402 2SM -SHSN BR OVC010
  FM240200 30012KT 3SM -SHSN BR SCT005 OVC010
  TEMPO 2402/2405 1SM -SN BR BKN005
  FM240900 28006KT 5SM BR VCFG SCT005 BKN015
  FM241200 23006KT P6SM FEW025 BKN100
  FM241600 29018G26KT P6SM FEW120
  FM241800 30023G31KT P6SM SCT250
  FM242300 01009KT P6SM SCT200
  FM250500 20010KT P6SM SCT200


Raw METAR
KDEN 232356Z 32013G20KT 2 1/2SM HZ OVC009 M04/M07 A2989 RMK AO2 T10391067
KDEN 232353Z 32016KT 2 1/2SM HZ OVC010 M03/M07 A2989 RMK AO2 SNE04 SLP158 P0000 60000 T10331067 10017 21056 55001
KDEN 232320Z 33016KT 2 1/2SM HZ BKN010 BKN014 BKN045 M03/M06 A2988 RMK AO2 SNE04 P0000 T10281061
KDEN 232314Z 33015KT 3SM HZ BKN010 OVC045 M03/M06 A2988 RMK AO2 SNE04 P0000 T10281061
KDEN 232305Z 34014KT 3SM HZ SCT010 OVC047 M02/M06 A2988 RMK AO2 SNE04 P0000 T10221056
KDEN 232253Z 34015KT 3SM -SN FEW009 OVC045 M02/M06 A2989 RMK AO2 SNB16 SLP160 P0000 T10171056
KDEN 232248Z 34017KT 3SM -SN FEW009 FEW035 BKN043 M02/M06 A2988 RMK AO2 SNB16 P0000
KDEN 232241Z 35016KT 3SM -SN FEW010 OVC041 M02/M06 A2988 RMK AO2 SNB16 P0000 T10171056
KDEN 232226Z 34016KT 2 1/2SM -SN FEW010 OVC037 M02/M05 A2989 RMK AO2 SNB16 P0000 T10171050
KDEN 232153Z 35016KT 5SM HZ SCT020 SCT110 00/M04 A2989 RMK AO2 SLP153 T00001044

METAR Board
Radar Display
Forecast Discussion

FOR SITUATIONAL AWARENESS. NOT TO BE USED FOR FLIGHT PLANNING PURPOSES.